createdAt,value
2023-04-10T00:02:55.347Z,100.00
2023-04-10T00:07:58.347Z,100.00
2023-04-10T00:13:03.615Z,100.00
2023-04-10T00:18:06.628Z,100.00
2023-04-10T00:23:09.861Z,100.00
2023-04-10T00:28:12.826Z,100.00
2023-04-10T00:33:16.044Z,100.00
2023-04-10T00:38:19.048Z,100.00
2023-04-10T00:43:22.363Z,100.00
2023-04-10T00:48:26.361Z,100.00
2023-04-10T00:53:30.043Z,100.00
2023-04-10T00:58:33.018Z,100.00
2023-04-10T01:03:37.349Z,100.00
2023-04-10T01:09:06.406Z,100.00
2023-04-10T01:14:09.274Z,100.00
2023-04-10T01:19:12.285Z,100.00
2023-04-10T01:24:24.989Z,100.00
2023-04-10T01:29:31.060Z,100.00
2023-04-10T01:34:45.151Z,100.00
2023-04-10T01:39:54.584Z,100.00
2023-04-10T01:44:58.769Z,100.00
2023-04-10T01:50:03.707Z,100.00
2023-04-10T01:55:08.839Z,100.00
2023-04-10T02:00:12.962Z,100.00
2023-04-10T02:05:16.988Z,100.00
2023-04-10T02:10:31.655Z,100.00
2023-04-10T02:15:36.630Z,100.00
2023-04-10T02:20:39.671Z,100.00
2023-04-10T02:25:42.581Z,100.00
2023-04-10T02:30:45.778Z,100.00
2023-04-10T02:35:48.819Z,100.00
2023-04-10T02:40:51.788Z,100.00
2023-04-10T02:45:55.110Z,100.00
2023-04-10T02:50:58.722Z,100.00
2023-04-10T02:56:02.638Z,100.00
2023-04-10T03:01:09.345Z,100.00
2023-04-10T03:06:12.462Z,100.00
2023-04-10T03:11:15.563Z,100.00
2023-04-10T03:16:19.076Z,100.00
2023-04-10T03:21:22.297Z,100.00
2023-04-10T03:26:25.608Z,100.00
2023-04-10T03:31:29.752Z,100.00
2023-04-10T03:36:32.748Z,100.00
2023-04-10T03:41:35.649Z,100.00
2023-04-10T03:46:38.632Z,100.00
2023-04-10T03:51:41.564Z,100.00
2023-04-10T03:56:44.463Z,100.00
2023-04-10T04:01:47.438Z,100.00
2023-04-10T04:06:50.474Z,100.00
2023-04-10T04:11:53.381Z,100.00
2023-04-10T04:16:56.346Z,100.00
2023-04-10T04:22:00.596Z,100.00
2023-04-10T04:27:03.833Z,100.00
2023-04-10T04:32:06.766Z,100.00
2023-04-10T04:37:09.761Z,100.00
2023-04-10T04:42:12.955Z,100.00
2023-04-10T04:47:15.860Z,97.63
2023-04-10T04:52:18.764Z,89.86
2023-04-10T04:57:21.877Z,84.91
2023-04-10T05:02:25.088Z,79.25
2023-04-10T05:07:28.088Z,75.09
2023-04-10T05:12:31.402Z,74.15
2023-04-10T05:17:34.480Z,68.64
2023-04-10T05:22:37.515Z,66.84
2023-04-10T05:27:40.527Z,64.16
2023-04-10T05:32:43.498Z,62.94
2023-04-10T05:37:46.437Z,62.60
2023-04-10T05:42:49.344Z,60.63
2023-04-10T05:47:52.367Z,58.79
2023-04-10T05:52:55.439Z,58.94
2023-04-10T05:57:58.469Z,57.09
2023-04-10T06:03:01.837Z,55.07
2023-04-10T06:08:05.194Z,54.20
2023-04-10T06:13:10.577Z,53.68
2023-04-10T06:18:14.171Z,52.48
2023-04-10T06:23:17.286Z,51.82
2023-04-10T06:28:20.409Z,52.01
2023-04-10T06:33:26.164Z,52.26
2023-04-10T06:38:29.753Z,52.09
2023-04-10T06:43:36.953Z,50.64
2023-04-10T06:48:39.922Z,50.42
2023-04-10T06:53:43.017Z,49.34
2023-04-10T06:58:46.121Z,49.09
2023-04-10T07:03:49.082Z,48.04
2023-04-10T07:08:52.304Z,47.79
2023-04-10T07:13:58.683Z,47.93
2023-04-10T07:19:01.744Z,46.98
2023-04-10T07:24:04.758Z,46.99
2023-04-10T07:29:08.044Z,45.63
2023-04-10T07:34:12.114Z,44.49
2023-04-10T07:39:15.093Z,43.98
2023-04-10T07:44:18.772Z,43.19
2023-04-10T07:49:21.919Z,42.64
2023-04-10T07:54:24.938Z,41.69
2023-04-10T07:59:29.055Z,40.91
2023-04-10T08:04:32.425Z,41.76
2023-04-10T08:09:35.995Z,41.26
2023-04-10T08:14:38.991Z,40.92
2023-04-10T08:19:43.378Z,40.92
2023-04-10T08:24:46.545Z,42.09
2023-04-10T08:29:52.153Z,40.79
2023-04-10T08:34:56.690Z,41.36
2023-04-10T08:40:04.706Z,41.27
2023-04-10T08:45:11.453Z,41.95
2023-04-10T08:50:18.066Z,42.55
2023-04-10T08:55:21.989Z,44.84
2023-04-10T09:00:26.081Z,47.49
2023-04-10T09:05:30.372Z,49.09
2023-04-10T09:10:33.362Z,49.48
2023-04-10T09:15:55.690Z,50.51
2023-04-10T09:21:07.303Z,52.60
2023-04-10T09:26:23.088Z,52.85
2023-04-10T09:31:29.790Z,53.58
2023-04-10T09:36:32.960Z,53.58
2023-04-10T09:41:48.026Z,55.53
2023-04-10T09:46:51.589Z,56.22
2023-04-10T09:51:54.653Z,56.21
2023-04-10T09:56:58.658Z,55.49
2023-04-10T10:02:02.737Z,56.96
2023-04-10T10:07:06.447Z,57.70
2023-04-10T10:12:11.878Z,56.49
2023-04-10T10:17:18.641Z,55.89
2023-04-10T10:22:25.918Z,56.98
2023-04-10T10:27:35.190Z,56.98
2023-04-10T10:32:38.406Z,56.29
2023-04-10T10:37:42.925Z,55.81
2023-04-10T10:43:01.932Z,56.10
2023-04-10T10:48:05.050Z,56.53
2023-04-10T10:53:08.144Z,57.17
2023-04-10T10:58:11.760Z,55.05
2023-04-10T11:03:14.811Z,54.84
2023-04-10T11:08:18.639Z,53.33
2023-04-10T11:13:21.990Z,52.87
2023-04-10T11:18:51.156Z,52.94
2023-04-10T11:23:59.572Z,52.98
2023-04-10T11:29:03.467Z,51.62
2023-04-10T11:34:15.896Z,51.71
2023-04-10T11:39:20.545Z,52.73
2023-04-10T11:44:39.727Z,52.15
2023-04-10T11:49:42.936Z,51.83
2023-04-10T11:54:49.523Z,51.87
2023-04-10T11:59:52.631Z,51.19
2023-04-10T12:04:59.568Z,52.17
2023-04-10T12:10:02.665Z,53.12
2023-04-10T12:15:29.141Z,53.14
2023-04-10T12:20:32.306Z,52.39
2023-04-10T12:25:35.725Z,53.11
2023-04-10T12:30:45.999Z,52.11
2023-04-10T12:35:48.937Z,51.76
2023-04-10T12:40:59.376Z,50.81
2023-04-10T12:46:03.558Z,50.89
2023-04-10T12:51:07.252Z,51.25
2023-04-10T12:56:10.253Z,50.47
2023-04-10T13:01:14.953Z,47.75
2023-04-10T13:06:18.323Z,48.76
2023-04-10T13:11:22.857Z,49.37
2023-04-10T13:16:26.113Z,48.28
2023-04-10T13:21:29.792Z,47.88
2023-04-10T13:26:32.798Z,47.51
2023-04-10T13:31:35.956Z,47.50
2023-04-10T13:36:39.285Z,46.22
2023-04-10T13:41:42.326Z,46.93
2023-04-10T13:46:45.455Z,46.93
2023-04-10T13:51:48.583Z,47.02
2023-04-10T13:56:51.663Z,46.20
2023-04-10T14:01:54.663Z,46.94
2023-04-10T14:07:00.641Z,45.03
2023-04-10T14:12:03.854Z,45.52
2023-04-10T14:17:06.961Z,43.15
2023-04-10T14:22:09.867Z,44.01
2023-04-10T14:27:13.604Z,44.03
2023-04-10T14:32:16.726Z,44.32
2023-04-10T14:37:19.804Z,44.89
2023-04-10T14:42:23.908Z,46.08
2023-04-10T14:47:27.084Z,46.79
2023-04-10T14:52:30.254Z,46.09
2023-04-10T14:57:33.160Z,47.07
2023-04-10T15:02:36.274Z,45.74
2023-04-10T15:07:39.589Z,44.23
2023-04-10T15:12:43.012Z,44.07
2023-04-10T15:17:46.176Z,44.48
2023-04-10T15:22:49.112Z,45.48
2023-04-10T15:27:52.023Z,44.57
2023-04-10T15:32:55.049Z,44.64
2023-04-10T15:37:58.240Z,45.06
2023-04-10T15:43:01.244Z,45.41
2023-04-10T15:48:05.230Z,44.40
2023-04-10T15:53:08.275Z,44.21
2023-04-10T15:58:11.390Z,44.83
2023-04-10T16:03:14.674Z,45.38
2023-04-10T16:08:18.016Z,44.68
2023-04-10T16:13:21.134Z,45.17
2023-04-10T16:18:24.349Z,45.11
2023-04-10T16:23:27.342Z,45.74
2023-04-10T16:28:30.252Z,46.44
2023-04-10T16:33:33.352Z,47.23
2023-04-10T16:38:36.459Z,47.54
2023-04-10T16:43:39.671Z,48.28
2023-04-10T16:48:42.576Z,48.83
2023-04-10T16:53:45.582Z,49.96
2023-04-10T16:58:48.740Z,50.54
2023-04-10T17:03:52.060Z,50.88
2023-04-10T17:08:55.351Z,51.83
2023-04-10T17:13:58.549Z,52.43
2023-04-10T17:19:01.755Z,53.26
2023-04-10T17:24:04.871Z,53.86
2023-04-10T17:29:07.978Z,54.79
2023-04-10T17:34:11.086Z,55.62
2023-04-10T17:39:14.077Z,56.63
2023-04-10T17:44:17.062Z,57.82
2023-04-10T17:49:21.919Z,58.85
2023-04-10T17:54:25.261Z,59.78
2023-04-10T17:59:31.219Z,60.44
2023-04-10T18:04:34.543Z,61.21
2023-04-10T18:09:37.989Z,62.00
2023-04-10T18:14:42.706Z,62.57
2023-04-10T18:19:45.910Z,63.04
2023-04-10T18:24:49.580Z,63.28
2023-04-10T18:29:57.642Z,63.22
2023-04-10T18:35:00.685Z,63.94
2023-04-10T18:40:15.512Z,64.47
2023-04-10T18:45:20.619Z,64.57
2023-04-10T18:50:23.622Z,64.55
2023-04-10T18:55:26.547Z,64.82
2023-04-10T19:00:29.632Z,65.45
2023-04-10T19:05:32.948Z,65.72
2023-04-10T19:10:37.719Z,65.96
2023-04-10T19:15:42.361Z,67.60
2023-04-10T19:20:48.844Z,68.78
2023-04-10T19:25:54.931Z,69.04
2023-04-10T19:30:58.354Z,69.49
2023-04-10T19:36:01.338Z,70.72
2023-04-10T19:41:13.629Z,71.37
2023-04-10T19:46:18.184Z,71.67
2023-04-10T19:51:21.629Z,71.31
2023-04-10T19:56:25.458Z,71.47
2023-04-10T20:01:28.590Z,71.71
2023-04-10T20:06:32.109Z,72.27
2023-04-10T20:11:35.169Z,72.93
2023-04-10T20:16:39.256Z,73.37
2023-04-10T20:21:42.322Z,73.46
2023-04-10T20:26:45.895Z,73.83
2023-04-10T20:31:49.044Z,74.30
2023-04-10T20:36:52.049Z,74.54
2023-04-10T20:41:55.050Z,75.22
2023-04-10T20:46:57.962Z,76.18
2023-04-10T20:52:01.059Z,77.31
2023-04-10T20:57:06.141Z,78.28
2023-04-10T21:02:09.223Z,79.66
2023-04-10T21:07:12.345Z,80.06
2023-04-10T21:12:15.342Z,80.85
2023-04-10T21:17:19.458Z,81.30
2023-04-10T21:22:22.691Z,81.95
2023-04-10T21:27:25.692Z,81.83
2023-04-10T21:32:30.040Z,82.79
2023-04-10T21:37:33.041Z,84.34
2023-04-10T21:42:39.584Z,85.93
2023-04-10T21:47:42.561Z,87.41
2023-04-10T21:52:45.754Z,89.05
2023-04-10T21:57:48.753Z,88.91
2023-04-10T22:02:52.023Z,90.04
2023-04-10T22:07:55.487Z,90.05
2023-04-10T22:12:58.584Z,90.03
2023-04-10T22:18:01.587Z,90.29
2023-04-10T22:23:05.119Z,90.56
2023-04-10T22:28:08.118Z,90.71
2023-04-10T22:33:12.158Z,92.16
2023-04-10T22:38:15.635Z,93.07
2023-04-10T22:43:18.581Z,94.23
2023-04-10T22:48:21.662Z,94.91
2023-04-10T22:53:24.791Z,94.83
2023-04-10T22:58:27.897Z,96.07
2023-04-10T23:03:30.909Z,97.61
2023-04-10T23:08:33.952Z,97.76
2023-04-10T23:13:36.814Z,98.70
2023-04-10T23:18:39.721Z,99.43
2023-04-10T23:23:42.834Z,99.52
2023-04-10T23:28:45.741Z,99.93
2023-04-10T23:33:48.861Z,100.00
2023-04-10T23:38:52.067Z,100.00
2023-04-10T23:43:55.168Z,100.00
2023-04-10T23:48:58.285Z,100.00
2023-04-10T23:54:01.280Z,100.00
2023-04-10T23:59:04.499Z,100.00
